createdAt,value
2022-12-28T00:02:42.258Z,7.53
2022-12-28T00:05:45.373Z,9.52
2022-12-28T00:08:49.186Z,7.63
2022-12-28T00:11:52.410Z,10.38
2022-12-28T00:14:55.583Z,7.88
2022-12-28T00:17:58.960Z,7.70
2022-12-28T00:21:03.480Z,8.73
2022-12-28T00:24:06.906Z,7.80
2022-12-28T00:27:10.149Z,7.82
2022-12-28T00:30:13.705Z,8.03
2022-12-28T00:33:16.957Z,10.02
2022-12-28T00:36:22.007Z,6.95
2022-12-28T00:39:25.202Z,9.13
2022-12-28T00:42:29.298Z,10.60
2022-12-28T00:45:33.165Z,8.50
2022-12-28T00:48:37.378Z,7.18
2022-12-28T00:51:40.607Z,8.02
2022-12-28T00:54:43.848Z,6.93
2022-12-28T00:57:47.098Z,8.23
2022-12-28T01:00:50.643Z,7.88
2022-12-28T01:03:56.998Z,7.00
2022-12-28T01:07:01.172Z,7.18
2022-12-28T01:10:08.004Z,8.45
2022-12-28T01:13:11.839Z,7.50
2022-12-28T01:16:20.757Z,6.68
2022-12-28T01:19:25.257Z,7.93
2022-12-28T01:22:29.083Z,5.97
2022-12-28T01:25:33.830Z,6.07
2022-12-28T01:28:37.166Z,5.80
2022-12-28T01:31:40.322Z,5.40
2022-12-28T01:34:43.574Z,5.50
2022-12-28T01:37:48.621Z,8.13
2022-12-28T01:40:52.136Z,5.93
2022-12-28T01:43:55.198Z,10.45
2022-12-28T01:47:06.032Z,5.33
2022-12-28T01:50:16.794Z,6.95
2022-12-28T01:53:22.117Z,7.95
2022-12-28T01:56:26.190Z,5.93
2022-12-28T01:59:33.733Z,8.27
2022-12-28T02:02:37.543Z,5.00
2022-12-28T02:05:44.553Z,9.65
2022-12-28T02:09:04.823Z,6.93
2022-12-28T02:12:13.121Z,8.18
2022-12-28T02:15:21.248Z,6.72
2022-12-28T02:18:27.718Z,8.03
2022-12-28T02:22:01.671Z,7.40
2022-12-28T02:25:14.061Z,6.65
2022-12-28T02:28:54.670Z,6.32
2022-12-28T02:32:29.199Z,6.82
2022-12-28T02:35:42.499Z,9.25
2022-12-28T02:38:51.285Z,7.35
2022-12-28T02:41:56.368Z,6.37
2022-12-28T02:45:18.031Z,7.50
2022-12-28T02:48:40.537Z,7.85
2022-12-28T02:51:47.898Z,5.97
2022-12-28T02:55:15.994Z,6.37
2022-12-28T02:58:37.970Z,6.40
2022-12-28T03:02:01.077Z,9.20
2022-12-28T03:05:09.376Z,10.48
2022-12-28T03:08:21.811Z,6.43
2022-12-28T03:11:56.803Z,8.10
2022-12-28T03:15:15.412Z,12.18
2022-12-28T03:18:39.410Z,6.63
2022-12-28T03:22:02.037Z,17.77
2022-12-28T03:25:31.705Z,6.22
2022-12-28T03:28:56.144Z,10.10
2022-12-28T03:32:01.815Z,10.35
2022-12-28T03:35:05.957Z,6.68
2022-12-28T03:38:14.434Z,5.47
2022-12-28T03:41:32.807Z,9.53
2022-12-28T03:44:54.919Z,8.32
2022-12-28T03:48:02.709Z,6.43
2022-12-28T03:51:06.897Z,6.38
2022-12-28T03:54:14.829Z,6.68
2022-12-28T03:57:19.637Z,6.72
2022-12-28T04:00:25.338Z,10.02
2022-12-28T04:03:30.784Z,8.07
2022-12-28T04:06:34.015Z,6.28
2022-12-28T04:09:37.489Z,9.35
2022-12-28T04:12:40.830Z,8.25
2022-12-28T04:16:05.706Z,8.40
2022-12-28T04:19:11.160Z,9.98
2022-12-28T04:22:14.691Z,12.75
2022-12-28T04:25:18.065Z,10.43
2022-12-28T04:28:21.344Z,6.28
2022-12-28T04:31:43.367Z,6.88
2022-12-28T04:34:49.335Z,7.55
2022-12-28T04:37:54.637Z,7.88
2022-12-28T04:40:57.911Z,11.82
2022-12-28T04:44:01.651Z,7.95
2022-12-28T04:47:05.070Z,8.00
2022-12-28T04:50:08.605Z,10.68
2022-12-28T04:53:11.652Z,7.45
2022-12-28T04:56:16.169Z,7.97
2022-12-28T04:59:19.938Z,9.35
2022-12-28T05:02:23.295Z,9.52
2022-12-28T05:05:27.417Z,12.98
2022-12-28T05:08:34.237Z,14.77
2022-12-28T05:11:37.555Z,9.77
2022-12-28T05:14:42.302Z,8.57
2022-12-28T05:17:45.496Z,8.37
2022-12-28T05:20:48.685Z,11.32
2022-12-28T05:23:53.358Z,9.63
2022-12-28T05:26:56.668Z,8.93
2022-12-28T05:29:59.823Z,10.80
2022-12-28T05:33:03.300Z,9.38
2022-12-28T05:36:09.141Z,8.88
2022-12-28T05:39:12.330Z,9.82
2022-12-28T05:42:15.501Z,9.38
2022-12-28T05:45:18.746Z,10.50
2022-12-28T05:48:21.945Z,8.10
2022-12-28T05:51:27.369Z,8.27
2022-12-28T05:54:30.608Z,11.10
2022-12-28T05:57:33.720Z,10.60
2022-12-28T06:00:37.026Z,8.23
2022-12-28T06:03:40.922Z,9.25
2022-12-28T06:06:45.513Z,10.85
2022-12-28T06:09:48.803Z,10.10
2022-12-28T06:12:52.647Z,8.63
2022-12-28T06:15:55.786Z,7.75
2022-12-28T06:18:59.660Z,8.73
2022-12-28T06:22:02.916Z,7.57
2022-12-28T06:25:06.620Z,11.18
2022-12-28T06:28:09.911Z,9.13
2022-12-28T06:31:27.437Z,7.85
2022-12-28T06:34:30.667Z,9.98
2022-12-28T06:37:33.888Z,11.73
2022-12-28T06:41:11.118Z,10.07
2022-12-28T06:44:00.403Z,9.98
2022-12-28T06:47:03.651Z,8.82
2022-12-28T06:50:07.387Z,10.07
2022-12-28T06:53:10.945Z,13.55
2022-12-28T06:56:16.798Z,10.25
2022-12-28T06:59:20.081Z,13.27
2022-12-28T07:02:23.580Z,14.40
2022-12-28T07:05:27.238Z,11.80
2022-12-28T07:08:31.068Z,12.95
2022-12-28T07:11:35.207Z,16.10
2022-12-28T07:14:38.369Z,15.13
2022-12-28T07:17:41.630Z,15.50
2022-12-28T07:20:44.822Z,13.70
2022-12-28T07:23:48.946Z,14.20
2022-12-28T07:26:52.258Z,14.90
2022-12-28T07:29:55.436Z,11.88
2022-12-28T07:32:58.641Z,16.10
2022-12-28T07:36:02.224Z,15.52
2022-12-28T07:39:05.714Z,16.67
2022-12-28T07:42:10.941Z,18.53
2022-12-28T07:45:14.710Z,16.02
2022-12-28T07:48:17.875Z,17.48
2022-12-28T07:51:29.949Z,16.10
2022-12-28T07:54:33.546Z,18.20
2022-12-28T07:57:36.805Z,17.05
2022-12-28T08:00:40.017Z,15.55
2022-12-28T08:03:44.239Z,17.02
2022-12-28T08:06:47.691Z,16.73
2022-12-28T08:09:50.899Z,15.25
2022-12-28T08:12:54.095Z,14.70
2022-12-28T08:15:57.366Z,11.82
2022-12-28T08:19:01.823Z,11.85
2022-12-28T08:22:05.009Z,11.23
2022-12-28T08:25:08.639Z,9.45
2022-12-28T08:28:11.959Z,10.27
2022-12-28T08:31:28.415Z,8.02
2022-12-28T08:34:31.947Z,11.07
2022-12-28T08:37:35.160Z,9.63
2022-12-28T08:40:42.008Z,10.63
2022-12-28T08:43:46.096Z,11.38
2022-12-28T08:46:49.351Z,10.25
2022-12-28T08:49:52.680Z,10.32
2022-12-28T08:52:55.884Z,11.32
2022-12-28T08:56:18.594Z,9.97
2022-12-28T08:59:21.808Z,9.93
2022-12-28T09:02:25.155Z,11.35
2022-12-28T09:05:28.491Z,9.18
2022-12-28T09:08:31.819Z,11.83
2022-12-28T09:11:36.510Z,9.45
2022-12-28T09:14:40.163Z,11.68
2022-12-28T09:17:43.397Z,9.27
2022-12-28T09:20:48.070Z,8.57
2022-12-28T09:23:51.615Z,8.15
2022-12-28T09:26:55.523Z,10.82
2022-12-28T09:29:58.779Z,10.70
2022-12-28T09:33:20.808Z,10.55
2022-12-28T09:36:24.412Z,9.25
2022-12-28T09:39:28.402Z,10.77
2022-12-28T09:42:42.513Z,10.70
2022-12-28T09:45:47.653Z,11.43
2022-12-28T09:48:56.796Z,8.02
2022-12-28T09:52:14.321Z,8.35
2022-12-28T09:55:19.492Z,8.33
2022-12-28T09:58:23.189Z,8.10
2022-12-28T10:01:27.497Z,7.05
2022-12-28T10:04:31.172Z,7.07
2022-12-28T10:07:36.631Z,10.70
2022-12-28T10:10:46.698Z,7.78
2022-12-28T10:14:02.865Z,6.25
2022-12-28T10:17:07.767Z,7.18
2022-12-28T10:20:22.341Z,5.97
2022-12-28T10:23:32.347Z,6.47
2022-12-28T10:26:36.610Z,8.20
2022-12-28T10:29:41.692Z,5.38
2022-12-28T10:32:53.712Z,8.53
2022-12-28T10:36:00.062Z,6.75
2022-12-28T10:39:04.000Z,9.98
2022-12-28T10:42:30.046Z,6.70
2022-12-28T10:45:40.695Z,6.37
2022-12-28T10:48:51.529Z,6.72
2022-12-28T10:52:05.247Z,5.18
2022-12-28T10:55:33.007Z,7.25
2022-12-28T10:58:36.540Z,7.75
2022-12-28T11:01:41.829Z,5.35
2022-12-28T11:05:03.593Z,6.97
2022-12-28T11:08:07.666Z,7.25
2022-12-28T11:11:22.774Z,9.65
2022-12-28T11:14:37.647Z,7.20
2022-12-28T11:17:41.039Z,6.80
2022-12-28T11:20:48.127Z,7.88
2022-12-28T11:23:53.436Z,7.15
2022-12-28T11:26:57.378Z,8.67
2022-12-28T11:30:00.644Z,9.20
2022-12-28T11:33:10.147Z,7.65
2022-12-28T11:36:17.257Z,8.32
2022-12-28T11:39:26.477Z,6.47
2022-12-28T11:42:41.400Z,6.00
2022-12-28T11:45:53.820Z,5.65
2022-12-28T11:49:04.230Z,6.78
2022-12-28T11:52:34.342Z,6.93
2022-12-28T11:56:06.074Z,7.88
2022-12-28T11:59:30.522Z,7.70
2022-12-28T12:02:41.487Z,6.82
2022-12-28T12:05:49.230Z,6.32
2022-12-28T12:08:54.034Z,6.63
2022-12-28T12:12:24.533Z,8.55
2022-12-28T12:15:43.575Z,6.80
2022-12-28T12:18:54.600Z,6.88
2022-12-28T12:22:29.306Z,7.07
2022-12-28T12:25:43.892Z,7.78
2022-12-28T12:28:53.000Z,8.85
2022-12-28T12:32:23.640Z,9.63
2022-12-28T12:35:29.535Z,11.68
2022-12-28T12:38:55.765Z,8.48
2022-12-28T12:42:36.705Z,12.10
2022-12-28T12:45:49.026Z,6.72
2022-12-28T12:49:19.774Z,9.53
2022-12-28T12:52:42.202Z,8.57
2022-12-28T12:55:52.779Z,6.43
2022-12-28T12:59:06.563Z,8.45
2022-12-28T13:02:16.155Z,6.38
2022-12-28T13:05:22.778Z,6.97
2022-12-28T13:08:47.474Z,6.28
2022-12-28T13:11:51.676Z,9.60
2022-12-28T13:15:07.578Z,7.05
2022-12-28T13:18:44.041Z,7.28
2022-12-28T13:21:44.682Z,7.70
2022-12-28T13:24:49.009Z,7.15
2022-12-28T13:27:52.444Z,8.70
2022-12-28T13:31:05.369Z,9.30
2022-12-28T13:34:16.971Z,12.60
2022-12-28T13:37:21.312Z,7.77
2022-12-28T13:40:24.504Z,7.88
2022-12-28T13:43:57.087Z,7.45
2022-12-28T13:47:22.662Z,7.68
2022-12-28T13:50:32.141Z,11.35
2022-12-28T13:53:36.619Z,9.70
2022-12-28T13:56:42.979Z,7.35
2022-12-28T13:59:47.693Z,10.25
2022-12-28T14:02:54.035Z,7.38
2022-12-28T14:06:02.178Z,6.80
2022-12-28T14:09:06.013Z,7.63
2022-12-28T14:12:11.925Z,6.72
2022-12-28T14:15:16.904Z,8.90
2022-12-28T14:18:20.634Z,8.05
2022-12-28T14:21:38.939Z,8.73
2022-12-28T14:25:03.889Z,10.15
2022-12-28T14:28:07.971Z,9.15
2022-12-28T14:31:14.379Z,10.35
2022-12-28T14:34:28.288Z,7.93
2022-12-28T14:37:37.628Z,8.63
2022-12-28T14:40:41.062Z,8.73
2022-12-28T14:43:51.269Z,10.18
2022-12-28T14:46:55.678Z,12.25
2022-12-28T14:50:00.208Z,10.43
2022-12-28T14:53:15.439Z,11.65
2022-12-28T14:56:19.785Z,12.07
2022-12-28T14:59:38.138Z,10.65
2022-12-28T15:02:43.179Z,10.47
2022-12-28T15:05:54.414Z,9.95
2022-12-28T15:08:59.051Z,11.30
2022-12-28T15:12:17.638Z,13.90
2022-12-28T15:15:22.080Z,12.95
2022-12-28T15:18:27.082Z,15.38
2022-12-28T15:21:30.499Z,13.13
2022-12-28T15:24:34.559Z,11.63
2022-12-28T15:27:39.437Z,14.32
2022-12-28T15:30:44.180Z,12.32
2022-12-28T15:33:48.183Z,13.18
2022-12-28T15:36:52.226Z,14.77
2022-12-28T15:39:55.367Z,13.45
2022-12-28T15:42:58.652Z,15.85
2022-12-28T15:46:01.910Z,15.38
2022-12-28T15:49:06.454Z,17.10
2022-12-28T15:52:10.131Z,15.88
2022-12-28T15:55:13.318Z,19.15
2022-12-28T15:58:16.614Z,17.40
2022-12-28T16:01:20.286Z,16.37
2022-12-28T16:04:23.706Z,19.17
2022-12-28T16:07:26.905Z,18.67
2022-12-28T16:10:30.126Z,17.23
2022-12-28T16:13:33.243Z,17.07
2022-12-28T16:16:39.172Z,15.93
2022-12-28T16:19:42.914Z,17.55
2022-12-28T16:22:46.335Z,18.17
2022-12-28T16:25:52.412Z,16.13
2022-12-28T16:28:55.667Z,21.40
2022-12-28T16:32:00.750Z,18.50
2022-12-28T16:35:04.131Z,18.95
2022-12-28T16:38:07.487Z,19.03
2022-12-28T16:41:10.682Z,17.38
2022-12-28T16:44:19.988Z,17.23
2022-12-28T16:47:23.170Z,16.60
2022-12-28T16:50:26.404Z,17.97
2022-12-28T16:53:30.578Z,18.27
2022-12-28T16:56:34.539Z,17.77
2022-12-28T16:59:37.728Z,18.70
2022-12-28T17:02:41.062Z,20.73
2022-12-28T17:05:48.158Z,24.17
2022-12-28T17:08:53.699Z,22.95
2022-12-28T17:11:56.939Z,23.47
2022-12-28T17:15:04.802Z,22.60
2022-12-28T17:18:09.931Z,21.63
2022-12-28T17:21:13.157Z,22.47
2022-12-28T17:24:16.607Z,20.75
2022-12-28T17:27:20.140Z,20.15
2022-12-28T17:30:23.402Z,22.33
2022-12-28T17:33:26.563Z,19.80
2022-12-28T17:36:29.787Z,18.25
2022-12-28T17:39:39.640Z,19.75
2022-12-28T17:42:43.702Z,20.85
2022-12-28T17:45:47.889Z,19.33
2022-12-28T17:48:53.205Z,17.50
2022-12-28T17:51:56.436Z,17.15
2022-12-28T17:54:59.693Z,16.33
2022-12-28T17:58:03.297Z,17.92
2022-12-28T18:01:07.303Z,20.42
2022-12-28T18:04:12.253Z,16.13
2022-12-28T18:07:15.543Z,18.63
2022-12-28T18:10:21.398Z,19.38
2022-12-28T18:13:25.005Z,15.70
2022-12-28T18:16:28.743Z,18.92
2022-12-28T18:19:32.297Z,16.40
2022-12-28T18:22:35.509Z,16.98
2022-12-28T18:25:39.043Z,19.50
2022-12-28T18:28:42.557Z,18.88
2022-12-28T18:31:45.937Z,19.17
2022-12-28T18:34:49.160Z,17.10
2022-12-28T18:37:52.639Z,17.20
2022-12-28T18:40:57.725Z,18.40
2022-12-28T18:44:02.765Z,18.30
2022-12-28T18:47:06.664Z,21.73
2022-12-28T18:50:10.227Z,21.05
2022-12-28T18:53:13.695Z,19.02
2022-12-28T18:56:19.708Z,17.65
2022-12-28T18:59:23.639Z,17.70
2022-12-28T19:02:27.657Z,17.33
2022-12-28T19:05:31.067Z,17.77
2022-12-28T19:08:36.218Z,20.17
2022-12-28T19:11:40.838Z,20.70
2022-12-28T19:14:44.373Z,19.55
2022-12-28T19:17:47.595Z,20.33
2022-12-28T19:20:55.188Z,18.37
2022-12-28T19:24:03.309Z,18.27
2022-12-28T19:27:06.570Z,19.33
2022-12-28T19:30:10.328Z,21.90
2022-12-28T19:33:13.535Z,18.77
2022-12-28T19:36:17.310Z,20.10
2022-12-28T19:39:20.539Z,20.55
2022-12-28T19:42:24.251Z,18.17
2022-12-28T19:45:27.400Z,21.98
2022-12-28T19:48:30.884Z,22.50
2022-12-28T19:51:34.579Z,21.93
2022-12-28T19:54:37.829Z,21.17
2022-12-28T19:57:41.220Z,18.95
2022-12-28T20:00:44.577Z,21.08
2022-12-28T20:03:48.916Z,20.80
2022-12-28T20:07:16.835Z,18.98
2022-12-28T20:10:20.254Z,24.95
2022-12-28T20:13:23.439Z,20.23
2022-12-28T20:16:28.679Z,20.77
2022-12-28T20:19:32.445Z,22.15
2022-12-28T20:22:35.682Z,17.88
2022-12-28T20:25:39.023Z,17.80
2022-12-28T20:28:42.262Z,18.08
2022-12-28T20:31:45.867Z,17.38
2022-12-28T20:34:49.305Z,18.83
2022-12-28T20:37:52.814Z,21.70
2022-12-28T20:41:43.967Z,16.80
2022-12-28T20:44:47.175Z,16.13
2022-12-28T20:47:50.403Z,17.77
2022-12-28T20:51:00.642Z,14.77
2022-12-28T20:54:03.891Z,18.25
2022-12-28T20:57:07.322Z,20.52
2022-12-28T21:00:11.149Z,19.88
2022-12-28T21:03:14.362Z,19.63
2022-12-28T21:06:23.034Z,18.60
2022-12-28T21:09:26.249Z,18.83
2022-12-28T21:12:29.797Z,17.25
2022-12-28T21:15:39.469Z,21.00
2022-12-28T21:18:43.109Z,21.58
2022-12-28T21:21:48.490Z,18.17
2022-12-28T21:24:51.716Z,22.30
2022-12-28T21:27:55.005Z,20.92
2022-12-28T21:30:59.953Z,19.67
2022-12-28T21:34:03.551Z,22.23
2022-12-28T21:37:25.485Z,24.87
2022-12-28T21:40:28.754Z,22.48
2022-12-28T21:43:32.267Z,19.00
2022-12-28T21:46:35.477Z,21.83
2022-12-28T21:49:38.927Z,23.20
2022-12-28T21:52:42.074Z,24.15
2022-12-28T21:55:45.352Z,21.20
2022-12-28T21:58:49.690Z,24.95
2022-12-28T22:02:12.235Z,22.63
2022-12-28T22:05:34.293Z,24.98
2022-12-28T22:08:56.188Z,26.43
2022-12-28T22:12:18.314Z,26.38
2022-12-28T22:15:42.575Z,21.85
2022-12-28T22:19:01.756Z,22.47
2022-12-28T22:22:05.741Z,20.17
2022-12-28T22:25:09.914Z,21.92
2022-12-28T22:28:13.346Z,22.98
2022-12-28T22:31:16.663Z,22.73
2022-12-28T22:34:19.970Z,23.60
2022-12-28T22:37:23.212Z,25.65
2022-12-28T22:40:26.913Z,22.13
2022-12-28T22:43:30.170Z,25.65
2022-12-28T22:46:33.538Z,25.73
2022-12-28T22:49:36.802Z,25.63
2022-12-28T22:52:40.434Z,25.17
2022-12-28T22:55:43.635Z,26.85
2022-12-28T22:58:47.865Z,23.25
2022-12-28T23:01:53.679Z,22.85
2022-12-28T23:04:56.967Z,24.70
2022-12-28T23:08:00.129Z,24.95
2022-12-28T23:11:26.313Z,22.03
2022-12-28T23:14:48.146Z,22.63
2022-12-28T23:18:11.427Z,19.88
2022-12-28T23:21:38.807Z,17.37
2022-12-28T23:25:00.711Z,20.77
2022-12-28T23:28:07.447Z,18.48
2022-12-28T23:31:10.671Z,20.13
2022-12-28T23:34:14.204Z,20.33
2022-12-28T23:37:17.801Z,17.63
2022-12-28T23:40:22.783Z,19.60
2022-12-28T23:43:25.934Z,18.73
2022-12-28T23:46:29.273Z,19.13
2022-12-28T23:49:32.440Z,20.40
2022-12-28T23:52:35.963Z,20.20
2022-12-28T23:55:39.179Z,22.13
2022-12-28T23:58:42.448Z,21.35
